createdAt,value
2018-04-01T00:00:03.958Z,65.76
2018-04-01T00:02:31.633Z,66.81
2018-04-01T00:04:59.279Z,66.72
2018-04-01T00:07:27.590Z,67.37
2018-04-01T00:09:55.302Z,67.85
2018-04-01T00:12:22.943Z,68.97
2018-04-01T00:14:50.584Z,69.42
2018-04-01T00:17:18.246Z,69.27
2018-04-01T00:19:45.982Z,67.68
2018-04-01T00:22:13.657Z,68.16
2018-04-01T00:24:41.341Z,67.36
2018-04-01T00:27:09.005Z,66.60
2018-04-01T00:29:36.681Z,68.00
2018-04-01T00:32:04.365Z,68.36
2018-04-01T00:34:32.065Z,69.48
2018-04-01T00:36:59.697Z,69.41
2018-04-01T00:39:27.361Z,68.75
2018-04-01T00:41:55.065Z,69.05
2018-04-01T00:44:22.718Z,68.31
2018-04-01T00:46:50.350Z,67.17
2018-04-01T00:49:17.986Z,67.15
2018-04-01T00:51:45.617Z,68.04
2018-04-01T00:54:13.303Z,67.01
2018-04-01T00:56:40.945Z,66.55
2018-04-01T00:59:08.712Z,66.83
2018-04-01T01:01:36.414Z,65.37
2018-04-01T01:04:04.060Z,65.40
2018-04-01T01:06:31.714Z,65.71
2018-04-01T01:08:59.410Z,64.81
2018-04-01T01:11:27.213Z,64.70
2018-04-01T01:13:54.917Z,64.47
2018-04-01T01:16:22.553Z,64.82
2018-04-01T01:18:50.203Z,64.50
2018-04-01T01:21:17.954Z,64.99
2018-04-01T01:23:45.834Z,64.11
2018-04-01T01:26:13.466Z,64.16
2018-04-01T01:28:41.118Z,64.46
2018-04-01T01:31:08.789Z,64.83
2018-04-01T01:33:36.449Z,65.27
2018-04-01T01:36:04.091Z,64.36
2018-04-01T01:38:31.771Z,63.91
2018-04-01T01:40:59.456Z,64.59
2018-04-01T01:43:27.229Z,64.90
2018-04-01T01:45:54.885Z,65.46
2018-04-01T01:48:22.530Z,65.79
2018-04-01T01:50:50.242Z,65.85
2018-04-01T01:53:17.919Z,65.06
2018-04-01T01:55:45.585Z,64.95
2018-04-01T01:58:13.315Z,65.62
2018-04-01T02:00:41.019Z,66.27
2018-04-01T02:03:08.654Z,67.42
2018-04-01T02:05:36.355Z,67.45
2018-04-01T02:08:04.001Z,68.15
2018-04-01T02:10:31.835Z,68.62
2018-04-01T02:12:59.469Z,67.90
2018-04-01T02:15:27.142Z,68.24
2018-04-01T02:17:54.778Z,68.31
2018-04-01T02:20:22.435Z,68.00
2018-04-01T02:22:50.146Z,68.88
2018-04-01T02:25:17.823Z,68.82
2018-04-01T02:27:45.573Z,68.31
2018-04-01T02:30:13.287Z,68.53
2018-04-01T02:32:40.999Z,67.55
2018-04-01T02:35:08.667Z,68.87
2018-04-01T02:37:36.314Z,69.11
2018-04-01T02:40:03.954Z,69.05
2018-04-01T02:42:31.648Z,68.40
2018-04-01T02:44:59.292Z,68.95
2018-04-01T02:47:27.183Z,68.82
2018-04-01T02:49:54.937Z,69.29
2018-04-01T02:52:22.569Z,68.41
2018-04-01T02:54:50.265Z,67.93
2018-04-01T02:57:18.040Z,67.33
2018-04-01T02:59:45.677Z,67.36
2018-04-01T03:02:13.354Z,67.17
2018-04-01T03:04:41.164Z,66.52
2018-04-01T03:07:08.892Z,66.68
2018-04-01T03:09:36.597Z,65.63
2018-04-01T03:12:04.275Z,64.42
2018-04-01T03:14:31.967Z,63.58
2018-04-01T03:16:59.617Z,63.03
2018-04-01T03:19:27.285Z,61.87
2018-04-01T03:21:55.068Z,61.74
2018-04-01T03:24:22.791Z,62.45
2018-04-01T03:26:50.438Z,62.79
2018-04-01T03:29:18.365Z,62.66
2018-04-01T03:31:46.134Z,61.97
2018-04-01T03:34:13.788Z,61.58
2018-04-01T03:36:41.490Z,61.66
2018-04-01T03:39:09.133Z,62.27
2018-04-01T03:41:36.812Z,63.68
2018-04-01T03:44:04.544Z,63.16
2018-04-01T03:46:32.195Z,62.90
2018-04-01T03:48:59.865Z,62.68
2018-04-01T03:51:27.507Z,63.70
2018-04-01T03:53:55.955Z,63.08
2018-04-01T03:56:23.594Z,63.22
2018-04-01T03:58:51.283Z,63.69
2018-04-01T04:01:18.990Z,63.46
2018-04-01T04:03:46.666Z,63.12
2018-04-01T04:06:14.362Z,61.43
2018-04-01T04:08:42.094Z,62.17
2018-04-01T04:11:09.794Z,61.28
2018-04-01T04:13:37.482Z,60.84
2018-04-01T04:16:05.118Z,60.73
2018-04-01T04:18:32.773Z,61.30
2018-04-01T04:21:00.478Z,60.16
2018-04-01T04:23:28.145Z,60.53
2018-04-01T04:25:55.790Z,61.58
2018-04-01T04:28:23.594Z,60.56
2018-04-01T04:30:51.364Z,59.85
2018-04-01T04:33:18.997Z,59.29
2018-04-01T04:35:46.683Z,60.02
2018-04-01T04:38:14.356Z,60.94
2018-04-01T04:40:42.207Z,59.03
2018-04-01T04:43:09.890Z,57.55
2018-04-01T04:45:37.560Z,55.75
2018-04-01T04:48:05.520Z,56.72
2018-04-01T04:50:33.207Z,55.37
2018-04-01T04:53:00.850Z,54.49
2018-04-01T04:55:28.502Z,55.92
2018-04-01T04:57:56.170Z,54.53
2018-04-01T05:00:23.811Z,53.04
2018-04-01T05:02:51.535Z,52.28
2018-04-01T05:05:19.165Z,52.67
2018-04-01T05:07:46.873Z,51.63
2018-04-01T05:10:14.697Z,51.21
2018-04-01T05:12:42.451Z,50.59
2018-04-01T05:15:10.931Z,50.99
2018-04-01T05:17:38.571Z,52.12
2018-04-01T05:20:06.355Z,50.87
2018-04-01T05:22:34.222Z,50.60
2018-04-01T05:25:01.892Z,50.22
2018-04-01T05:27:29.561Z,50.61
2018-04-01T05:29:57.268Z,50.66
2018-04-01T05:32:24.930Z,48.79
2018-04-01T05:34:52.569Z,48.85
2018-04-01T05:37:20.219Z,48.86
2018-04-01T05:39:47.853Z,48.38
2018-04-01T05:42:15.561Z,46.86
2018-04-01T05:44:43.225Z,48.10
2018-04-01T05:47:10.881Z,48.30
2018-04-01T05:49:38.517Z,48.29
2018-04-01T05:52:06.148Z,48.35
2018-04-01T05:54:34.055Z,47.53
2018-04-01T05:57:01.709Z,48.17
2018-04-01T05:59:29.374Z,46.85
2018-04-01T06:01:57.058Z,46.99
2018-04-01T06:04:24.807Z,47.02
2018-04-01T06:06:52.497Z,46.51
2018-04-01T06:09:20.198Z,46.52
2018-04-01T06:11:47.998Z,45.71
2018-04-01T06:14:15.676Z,45.04
2018-04-01T06:16:43.417Z,44.72
2018-04-01T06:19:11.055Z,45.13
2018-04-01T06:21:38.759Z,44.66
2018-04-01T06:24:06.393Z,45.83
2018-04-01T06:26:34.074Z,46.29
2018-04-01T06:29:01.723Z,46.81
2018-04-01T06:31:29.407Z,46.12
2018-04-01T06:33:57.207Z,45.54
2018-04-01T06:36:24.857Z,44.62
2018-04-01T06:38:52.533Z,46.09
2018-04-01T06:41:20.209Z,45.84
2018-04-01T06:43:47.863Z,45.90
2018-04-01T06:46:15.566Z,45.45
2018-04-01T06:48:43.282Z,45.35
2018-04-01T06:51:11.015Z,45.73
2018-04-01T06:53:38.645Z,45.89
2018-04-01T06:56:06.282Z,46.23
2018-04-01T06:58:33.977Z,46.06
2018-04-01T07:01:01.666Z,46.27
2018-04-01T07:03:29.302Z,45.95
2018-04-01T07:05:56.932Z,46.25
2018-04-01T07:08:24.582Z,46.19
2018-04-01T07:10:52.249Z,46.15
2018-04-01T07:13:19.921Z,45.55
2018-04-01T07:15:47.557Z,45.35
2018-04-01T07:18:15.202Z,45.38
2018-04-01T07:20:42.915Z,45.62
2018-04-01T07:23:10.587Z,45.29
2018-04-01T07:25:38.240Z,44.54
2018-04-01T07:28:05.958Z,46.00
2018-04-01T07:30:33.828Z,45.13
2018-04-01T07:33:01.515Z,44.73
2018-04-01T07:35:29.162Z,44.31
2018-04-01T07:37:56.826Z,45.17
2018-04-01T07:40:24.504Z,45.30
2018-04-01T07:42:52.161Z,45.10
2018-04-01T07:45:19.878Z,45.14
2018-04-01T07:47:47.530Z,44.76
2018-04-01T07:50:15.176Z,44.58
2018-04-01T07:52:42.893Z,44.73
2018-04-01T07:55:10.762Z,44.44
2018-04-01T07:57:38.433Z,44.28
2018-04-01T08:00:06.110Z,44.51
2018-04-01T08:02:33.748Z,44.65
2018-04-01T08:05:02.030Z,44.56
2018-04-01T08:07:29.723Z,44.44
2018-04-01T08:09:57.353Z,44.77
2018-04-01T08:12:25.164Z,44.82
2018-04-01T08:14:52.810Z,44.97
2018-04-01T08:17:20.485Z,44.13
2018-04-01T08:19:48.208Z,44.40
2018-04-01T08:22:15.879Z,45.06
2018-04-01T08:24:43.604Z,45.50
2018-04-01T08:27:11.254Z,44.75
2018-04-01T08:29:38.885Z,44.72
2018-04-01T08:32:06.625Z,44.61
2018-04-01T08:34:34.266Z,45.21
2018-04-01T08:37:02.156Z,45.59
2018-04-01T08:39:29.910Z,46.57
2018-04-01T08:41:57.550Z,45.88
2018-04-01T08:44:25.223Z,46.08
2018-04-01T08:46:52.890Z,46.40
2018-04-01T08:49:20.540Z,46.83
2018-04-01T08:51:48.337Z,47.46
2018-04-01T08:54:16.273Z,46.83
2018-04-01T08:56:44.026Z,47.21
2018-04-01T08:59:11.749Z,47.08
2018-04-01T09:01:39.398Z,46.87
2018-04-01T09:04:07.037Z,47.33
2018-04-01T09:06:34.687Z,47.42
2018-04-01T09:09:02.335Z,46.93
2018-04-01T09:11:30.155Z,47.69
2018-04-01T09:13:57.827Z,48.43
2018-04-01T09:16:25.498Z,48.65
2018-04-01T09:18:53.243Z,48.82
2018-04-01T09:21:20.881Z,48.23
2018-04-01T09:23:48.586Z,48.57
2018-04-01T09:26:16.217Z,48.25
2018-04-01T09:28:43.893Z,48.86
2018-04-01T09:31:11.659Z,48.90
2018-04-01T09:33:39.293Z,48.52
2018-04-01T09:36:06.947Z,48.49
2018-04-01T09:38:34.630Z,46.92
2018-04-01T09:41:02.410Z,47.78
2018-04-01T09:43:30.075Z,48.11
2018-04-01T09:45:57.738Z,49.12
2018-04-01T09:48:26.185Z,50.23
2018-04-01T09:50:53.875Z,49.84
2018-04-01T09:53:21.652Z,49.07
2018-04-01T09:55:49.295Z,47.51
2018-04-01T09:58:16.953Z,47.73
2018-04-01T10:03:54.246Z,47.67
2018-04-01T10:06:26.031Z,47.68
2018-04-01T10:08:55.385Z,46.11
2018-04-01T10:11:24.651Z,47.39
2018-04-01T10:13:53.830Z,47.49
2018-04-01T10:16:23.302Z,47.32
2018-04-01T10:18:52.503Z,47.50
2018-04-01T10:21:21.684Z,47.79
2018-04-01T10:23:51.010Z,47.91
2018-04-01T10:26:20.817Z,46.96
2018-04-01T10:28:52.175Z,46.57
2018-04-01T10:31:21.699Z,46.71
2018-04-01T10:33:50.886Z,47.57
2018-04-01T10:36:19.954Z,47.58
2018-04-01T10:38:49.063Z,47.82
2018-04-01T10:41:18.217Z,47.13
2018-04-01T10:43:47.297Z,48.86
2018-04-01T10:46:16.350Z,48.91
2018-04-01T10:48:45.451Z,49.65
2018-04-01T10:51:14.568Z,49.78
2018-04-01T10:53:43.743Z,49.41
2018-04-01T10:56:14.942Z,49.10
2018-04-01T10:58:42.658Z,48.16
2018-04-01T11:01:10.438Z,49.90
2018-04-01T11:03:38.134Z,48.31
2018-04-01T11:06:05.761Z,48.74
2018-04-01T11:08:34.065Z,49.25
2018-04-01T11:11:01.700Z,50.99
2018-04-01T11:13:29.391Z,50.81
2018-04-01T11:15:57.044Z,51.00
2018-04-01T11:18:24.831Z,51.21
2018-04-01T11:20:52.515Z,53.01
2018-04-01T11:23:20.197Z,54.86
2018-04-01T11:25:47.916Z,55.18
2018-04-01T11:28:15.608Z,55.73
2018-04-01T11:30:43.348Z,56.31
2018-04-01T11:33:11.156Z,60.02
2018-04-01T11:35:38.880Z,60.43
2018-04-01T11:38:06.558Z,62.93
2018-04-01T11:40:34.251Z,62.59
2018-04-01T11:43:01.893Z,63.24
2018-04-01T11:45:29.535Z,62.03
2018-04-01T11:47:57.173Z,62.58
2018-04-01T11:50:24.806Z,63.16
2018-04-01T11:52:52.510Z,63.02
2018-04-01T11:55:20.155Z,62.45
2018-04-01T11:57:47.845Z,64.34
2018-04-01T12:00:15.701Z,64.18
2018-04-01T12:02:43.995Z,63.02
2018-04-01T12:05:11.648Z,63.20
2018-04-01T12:07:39.614Z,63.30
2018-04-01T12:10:07.259Z,62.09
2018-04-01T12:12:34.907Z,60.69
2018-04-01T12:15:02.608Z,61.69
2018-04-01T12:17:30.313Z,61.23
2018-04-01T12:19:57.947Z,60.23
2018-04-01T12:22:25.689Z,59.91
2018-04-01T12:24:53.327Z,60.83
2018-04-01T12:27:21.000Z,62.98
2018-04-01T12:29:48.706Z,68.41
2018-04-01T12:32:16.358Z,69.67
2018-04-01T12:34:43.985Z,75.39
2018-04-01T12:37:11.643Z,78.90
2018-04-01T12:39:39.306Z,80.83
2018-04-01T12:42:07.106Z,81.46
2018-04-01T12:44:34.741Z,86.10
2018-04-01T12:47:02.397Z,87.56
2018-04-01T12:49:30.090Z,89.14
2018-04-01T12:51:57.757Z,88.49
2018-04-01T12:54:25.433Z,89.02
2018-04-01T12:56:53.149Z,88.86
2018-04-01T12:59:20.801Z,90.27
2018-04-01T13:01:48.505Z,90.38
2018-04-01T13:04:16.228Z,88.39
2018-04-01T13:06:43.857Z,87.81
2018-04-01T13:09:11.540Z,90.14
2018-04-01T13:11:39.183Z,87.55
2018-04-01T13:14:06.812Z,87.19
2018-04-01T13:16:34.584Z,87.92
2018-04-01T13:19:02.222Z,86.76
2018-04-01T13:21:29.907Z,84.81
2018-04-01T13:23:57.570Z,83.67
2018-04-01T13:26:25.219Z,79.97
2018-04-01T13:28:52.915Z,80.30
2018-04-01T13:31:20.596Z,80.53
2018-04-01T13:33:48.254Z,76.33
2018-04-01T13:36:15.910Z,77.74
2018-04-01T13:38:43.545Z,75.59
2018-04-01T13:41:11.235Z,76.25
2018-04-01T13:43:38.932Z,78.43
2018-04-01T13:46:06.590Z,79.43
2018-04-01T13:48:34.262Z,82.08
2018-04-01T13:51:01.943Z,84.38
2018-04-01T13:53:29.643Z,83.21
2018-04-01T13:55:58.394Z,82.88
2018-04-01T13:58:26.071Z,80.89
2018-04-01T14:00:53.764Z,80.18
2018-04-01T14:03:21.506Z,81.87
2018-04-01T14:05:49.162Z,80.20
2018-04-01T14:08:16.869Z,78.91
2018-04-01T14:10:44.496Z,76.44
2018-04-01T14:13:12.125Z,78.07
2018-04-01T14:15:39.811Z,77.29
2018-04-01T14:18:07.573Z,77.01
2018-04-01T14:20:35.244Z,76.52
2018-04-01T14:23:02.922Z,75.83
2018-04-01T14:25:30.674Z,73.80
2018-04-01T14:27:58.334Z,70.53
2018-04-01T14:30:26.006Z,70.86
2018-04-01T14:32:53.662Z,71.36
2018-04-01T14:35:21.316Z,67.64
2018-04-01T14:37:48.986Z,68.58
2018-04-01T14:40:16.642Z,66.02
2018-04-01T14:42:44.279Z,67.73
2018-04-01T14:45:11.976Z,66.58
2018-04-01T14:47:39.633Z,67.70
2018-04-01T14:50:07.311Z,64.40
2018-04-01T14:52:34.965Z,64.28
2018-04-01T14:55:03.390Z,57.99
2018-04-01T14:57:31.111Z,53.78
2018-04-01T14:59:58.875Z,60.64
2018-04-01T15:02:26.505Z,62.91
2018-04-01T15:04:54.205Z,62.70
2018-04-01T15:07:21.958Z,60.23
2018-04-01T15:09:49.599Z,61.38
2018-04-01T15:12:17.251Z,58.95
2018-04-01T15:14:44.931Z,51.02
2018-04-01T15:17:12.570Z,47.27
2018-04-01T15:19:40.422Z,53.11
2018-04-01T15:22:08.150Z,54.24
2018-04-01T15:24:35.976Z,50.95
2018-04-01T15:27:03.624Z,56.37
2018-04-01T15:29:31.297Z,60.52
2018-04-01T15:31:58.961Z,63.82
2018-04-01T15:34:26.618Z,69.46
2018-04-01T15:36:54.264Z,71.10
2018-04-01T15:39:21.966Z,73.35
2018-04-01T15:41:49.641Z,72.70
2018-04-01T15:44:17.291Z,69.89
2018-04-01T15:46:44.971Z,71.68
2018-04-01T15:49:12.760Z,69.97
2018-04-01T15:51:40.389Z,71.53
2018-04-01T15:54:08.176Z,72.66
2018-04-01T15:56:35.809Z,73.73
2018-04-01T15:59:03.503Z,74.21
2018-04-01T16:01:31.234Z,74.73
2018-04-01T16:03:58.888Z,75.10
2018-04-01T16:06:26.530Z,76.01
2018-04-01T16:08:54.234Z,75.91
2018-04-01T16:11:22.016Z,77.21
2018-04-01T16:13:49.716Z,76.12
2018-04-01T16:16:17.332Z,76.84
2018-04-01T16:18:45.043Z,77.40
2018-04-01T16:21:12.731Z,77.98
2018-04-01T16:23:40.394Z,78.76
2018-04-01T16:26:08.030Z,79.05
2018-04-01T16:28:35.761Z,78.83
2018-04-01T16:31:03.392Z,79.71
2018-04-01T16:33:31.062Z,78.56
2018-04-01T16:35:58.727Z,80.02
2018-04-01T16:38:26.447Z,78.86
2018-04-01T16:40:54.167Z,80.55
2018-04-01T16:43:21.813Z,82.23
2018-04-01T16:45:49.463Z,82.28
2018-04-01T16:48:17.369Z,80.63
2018-04-01T16:50:45.016Z,80.93
2018-04-01T16:53:12.778Z,81.37
2018-04-01T16:55:40.423Z,78.21
2018-04-01T16:58:08.110Z,79.58
2018-04-01T17:00:35.789Z,81.86
2018-04-01T17:03:03.546Z,82.63
2018-04-01T17:05:31.261Z,85.81
2018-04-01T17:07:58.958Z,85.79
2018-04-01T17:10:26.638Z,86.22
2018-04-01T17:12:54.273Z,87.65
2018-04-01T17:15:21.963Z,87.45
2018-04-01T17:17:49.726Z,86.70
2018-04-01T17:20:17.399Z,88.35
2018-04-01T17:22:45.152Z,84.47
2018-04-01T17:25:12.819Z,81.02
2018-04-01T17:27:40.505Z,78.88
2018-04-01T17:30:08.148Z,74.69
2018-04-01T17:32:35.815Z,73.94
2018-04-01T17:35:03.460Z,74.53
2018-04-01T17:37:31.106Z,72.05
2018-04-01T17:39:58.777Z,69.44
2018-04-01T17:42:26.484Z,71.02
2018-04-01T17:44:54.117Z,70.34
2018-04-01T17:47:21.807Z,70.51
2018-04-01T17:49:49.441Z,70.06
2018-04-01T17:52:17.142Z,70.47
2018-04-01T17:54:44.940Z,69.41
2018-04-01T17:57:12.615Z,68.66
2018-04-01T17:59:42.110Z,70.05
2018-04-01T18:02:09.752Z,69.95
2018-04-01T18:04:37.382Z,67.78
2018-04-01T18:07:05.063Z,68.74
2018-04-01T18:09:32.729Z,67.06
2018-04-01T18:12:00.393Z,68.34
2018-04-01T18:14:28.083Z,68.50
2018-04-01T18:16:55.731Z,67.42
2018-04-01T18:19:23.413Z,67.51
2018-04-01T18:21:51.194Z,67.54
2018-04-01T18:24:18.885Z,67.21
2018-04-01T18:26:46.517Z,67.17
2018-04-01T18:29:14.213Z,68.16
2018-04-01T18:31:41.900Z,67.52
2018-04-01T18:34:09.594Z,69.03
2018-04-01T18:36:37.278Z,69.77
2018-04-01T18:39:04.931Z,69.04
2018-04-01T18:41:32.609Z,71.38
2018-04-01T18:44:00.246Z,69.76
2018-04-01T18:46:27.931Z,66.94
2018-04-01T18:48:55.579Z,65.62
2018-04-01T18:51:23.349Z,66.51
2018-04-01T18:53:51.024Z,65.72
2018-04-01T18:56:18.686Z,67.30
2018-04-01T18:58:46.456Z,66.79
2018-04-01T19:01:14.853Z,66.93
2018-04-01T19:03:42.500Z,70.55
2018-04-01T19:06:10.133Z,72.99
2018-04-01T19:08:37.814Z,73.48
2018-04-01T19:11:05.445Z,74.98
2018-04-01T19:13:33.103Z,75.74
2018-04-01T19:16:01.824Z,77.04
2018-04-01T19:18:30.365Z,76.62
2018-04-01T19:20:59.495Z,76.85
2018-04-01T19:23:28.681Z,77.79
2018-04-01T19:25:57.671Z,78.30
2018-04-01T19:28:26.696Z,78.39
2018-04-01T19:30:55.786Z,78.67
2018-04-01T19:33:25.033Z,78.94
2018-04-01T19:35:54.173Z,79.59
2018-04-01T19:38:23.359Z,79.58
2018-04-01T19:40:52.583Z,79.21
2018-04-01T19:43:21.690Z,79.78
2018-04-01T19:45:50.973Z,80.75
2018-04-01T19:48:20.094Z,80.57
2018-04-01T19:50:49.421Z,80.57
2018-04-01T19:53:18.689Z,78.73
2018-04-01T19:55:47.985Z,80.94
2018-04-01T19:58:17.154Z,80.22
2018-04-01T20:00:46.791Z,80.68
2018-04-01T20:03:15.953Z,81.39
2018-04-01T20:05:48.053Z,81.46
2018-04-01T20:08:17.351Z,81.46
2018-04-01T20:10:47.145Z,81.28
2018-04-01T20:13:16.346Z,81.32
2018-04-01T20:15:45.497Z,81.98
2018-04-01T20:18:14.563Z,81.56
2018-04-01T20:20:43.666Z,81.89
2018-04-01T20:23:12.893Z,81.82
2018-04-01T20:25:41.935Z,82.03
2018-04-01T20:28:11.214Z,81.50
2018-04-01T20:30:40.210Z,82.05
2018-04-01T20:33:12.338Z,81.79
2018-04-01T20:35:44.149Z,82.40
2018-04-01T20:38:13.246Z,80.20
2018-04-01T20:40:42.429Z,80.98
2018-04-01T20:43:11.631Z,81.92
2018-04-01T20:45:40.801Z,81.12
2018-04-01T20:48:10.119Z,81.40
2018-04-01T20:50:39.265Z,81.39
2018-04-01T20:53:08.456Z,81.20
2018-04-01T20:55:37.726Z,80.94
2018-04-01T20:58:07.051Z,81.05
2018-04-01T21:00:36.207Z,80.74
2018-04-01T21:03:05.335Z,81.03
2018-04-01T21:05:34.490Z,80.46
2018-04-01T21:08:03.585Z,81.36
2018-04-01T21:10:32.739Z,80.65
2018-04-01T21:13:01.881Z,79.63
2018-04-01T21:15:31.029Z,79.78
2018-04-01T21:18:00.123Z,79.81
2018-04-01T21:20:29.179Z,78.75
2018-04-01T21:22:58.629Z,78.97
2018-04-01T21:25:27.769Z,79.40
2018-04-01T21:27:56.786Z,79.28
2018-04-01T21:30:26.033Z,80.25
2018-04-01T21:32:55.422Z,81.29
2018-04-01T21:35:24.574Z,81.14
2018-04-01T21:37:54.115Z,80.51
2018-04-01T21:40:23.211Z,79.72
2018-04-01T21:42:52.202Z,78.58
2018-04-01T21:45:21.271Z,78.41
2018-04-01T21:47:50.668Z,75.52
2018-04-01T21:50:19.856Z,73.69
2018-04-01T21:52:49.201Z,74.23
2018-04-01T21:55:18.367Z,74.76
2018-04-01T21:57:50.989Z,74.97
2018-04-01T22:00:20.143Z,75.46
2018-04-01T22:02:49.294Z,76.71
2018-04-01T22:05:19.325Z,77.11
2018-04-01T22:07:48.601Z,77.12
2018-04-01T22:10:17.789Z,76.72
2018-04-01T22:12:46.899Z,76.36
2018-04-01T22:15:16.051Z,73.74
2018-04-01T22:17:45.309Z,72.61
2018-04-01T22:20:14.553Z,72.68
2018-04-01T22:22:58.115Z,72.67
2018-04-01T22:25:27.146Z,73.71
2018-04-01T22:27:56.383Z,72.80
2018-04-01T22:30:25.579Z,73.22
2018-04-01T22:32:54.778Z,73.46
2018-04-01T22:35:26.941Z,70.71
2018-04-01T22:37:56.074Z,70.92
2018-04-01T22:40:25.230Z,70.97
2018-04-01T22:42:54.492Z,71.64
2018-04-01T22:45:23.522Z,72.85
2018-04-01T22:47:52.810Z,71.60
2018-04-01T22:50:21.995Z,72.51
2018-04-01T22:52:51.369Z,71.81
2018-04-01T22:55:20.506Z,71.65
2018-04-01T22:57:49.722Z,72.58
2018-04-01T23:00:19.593Z,72.95
2018-04-01T23:02:48.529Z,72.65
2018-04-01T23:05:17.531Z,72.88
2018-04-01T23:07:50.057Z,73.75
2018-04-01T23:10:22.313Z,73.59
2018-04-01T23:12:51.718Z,74.28
2018-04-01T23:15:20.983Z,73.47
2018-04-01T23:17:50.139Z,69.47
2018-04-01T23:20:19.330Z,69.00
2018-04-01T23:22:48.370Z,68.69
2018-04-01T23:25:17.693Z,68.37
2018-04-01T23:27:46.897Z,68.62
2018-04-01T23:30:16.219Z,69.47
2018-04-01T23:32:45.267Z,70.15
2018-04-01T23:35:14.467Z,70.30
2018-04-01T23:37:43.605Z,69.65
2018-04-01T23:40:15.873Z,70.34
2018-04-01T23:42:44.995Z,69.59
2018-04-01T23:45:14.117Z,71.37
2018-04-01T23:47:43.446Z,68.48
2018-04-01T23:50:12.549Z,67.83
2018-04-01T23:52:42.343Z,68.32
2018-04-01T23:55:11.534Z,68.99
2018-04-01T23:57:40.521Z,69.16
